Time;durP1;ratioP1;P1;durP2;ratioP2;P2;SDS_P1;SDS_P2;PMS_P1;PMS_P2;Temp;Humidity;BMP_temperature;BMP_pressure;BME280_temperature;BME280_humidity;BME280_pressure;Samples;Min_cycle;Max_cycle;Signal;HPM_P1;HPM_P2
2023/03/12 00:01:32;;;;;;;6.30;1.52;;;2.30;99.90;;;;;;5026014;28;20033;-62
2023/03/12 00:04:00;;;;;;;2.33;0.95;;;2.30;99.80;;;;;;5032348;28;20033;-64
2023/03/12 00:06:26;;;;;;;4.95;1.17;;;2.30;99.90;;;;;;5027478;28;20823;-63
2023/03/12 00:08:52;;;;;;;2.75;1.23;;;2.30;99.90;;;;;;5029384;28;20037;-63
2023/03/12 00:11:20;;;;;;;2.30;1.08;;;2.30;99.90;;;;;;5032596;28;20028;-63
2023/03/12 00:13:53;;;;;;;2.97;1.00;;;2.30;99.90;;;;;;5034749;28;20025;-63
2023/03/12 00:16:20;;;;;;;4.28;1.50;;;2.30;99.90;;;;;;5025177;28;20025;-64
2023/03/12 00:18:49;;;;;;;3.10;1.42;;;2.30;99.90;;;;;;5029240;28;20032;-63
2023/03/12 00:21:15;;;;;;;5.18;1.00;;;2.30;99.80;;;;;;5031668;28;20136;-63
2023/03/12 00:23:41;;;;;;;2.72;1.23;;;2.30;99.80;;;;;;5027171;28;20776;-63
2023/03/12 00:26:12;;;;;;;7.53;1.27;;;2.30;99.70;;;;;;5024967;28;20029;-63
2023/03/12 00:28:39;;;;;;;4.13;1.30;;;2.30;99.60;;;;;;5023897;28;20144;-63
2023/03/12 00:31:23;;;;;;;3.00;1.20;;;2.30;99.40;;;;;;5031057;28;20040;-63
2023/03/12 00:33:49;;;;;;;3.10;1.20;;;2.30;99.40;;;;;;5024514;28;20029;-64
2023/03/12 00:36:17;;;;;;;1.80;1.08;;;2.30;99.50;;;;;;5024544;28;20060;-63
2023/03/12 00:38:42;;;;;;;3.20;1.10;;;2.40;99.30;;;;;;5026339;28;20021;-63
2023/03/12 00:41:08;;;;;;;3.10;1.33;;;2.40;99.20;;;;;;5028507;28;20040;-63
2023/03/12 00:43:34;;;;;;;2.08;1.10;;;2.30;99.20;;;;;;5024854;28;20705;-63
2023/03/12 00:46:00;;;;;;;2.67;1.00;;;2.40;99.00;;;;;;5018961;28;20060;-63
2023/03/12 00:48:26;;;;;;;1.98;1.30;;;2.30;98.60;;;;;;5028334;28;20029;-63
2023/03/12 00:50:52;;;;;;;3.88;1.30;;;2.30;98.60;;;;;;5026195;28;20038;-64
2023/03/12 00:53:17;;;;;;;4.05;1.30;;;2.30;98.90;;;;;;5024458;28;20556;-63
2023/03/12 00:55:43;;;;;;;2.95;0.93;;;2.30;99.10;;;;;;5031180;28;20025;-63
2023/03/12 00:58:09;;;;;;;4.45;1.20;;;2.30;99.20;;;;;;5027388;28;20041;-64
2023/03/12 01:00:35;;;;;;;1.67;0.80;;;2.30;99.20;;;;;;5024805;28;20032;-63
2023/03/12 01:03:00;;;;;;;4.35;1.00;;;2.30;98.90;;;;;;5024372;28;20091;-63
2023/03/12 01:05:26;;;;;;;2.15;1.38;;;2.30;98.80;;;;;;5025528;28;20224;-63
2023/03/12 01:07:52;;;;;;;2.25;1.00;;;2.30;99.00;;;;;;5028167;28;20041;-63
2023/03/12 01:10:19;;;;;;;2.75;1.08;;;2.30;99.20;;;;;;5030625;28;20037;-63
2023/03/12 01:12:46;;;;;;;1.80;1.20;;;2.30;99.20;;;;;;5029173;28;20029;-63
2023/03/12 01:15:14;;;;;;;2.30;0.93;;;2.30;99.20;;;;;;5025303;28;20053;-63
2023/03/12 01:17:40;;;;;;;3.75;0.95;;;2.30;99.20;;;;;;5026200;28;20067;-64
2023/03/12 01:20:08;;;;;;;1.63;1.05;;;2.30;99.10;;;;;;5031489;28;20021;-63
2023/03/12 01:22:35;;;;;;;3.60;1.20;;;2.30;99.10;;;;;;5009877;28;20523;-64
2023/03/12 01:25:01;;;;;;;3.13;1.08;;;2.30;99.10;;;;;;5026513;28;20108;-63
2023/03/12 01:27:27;;;;;;;1.70;1.10;;;2.40;99.10;;;;;;5028945;28;20037;-63
2023/03/12 01:29:53;;;;;;;2.13;1.13;;;2.30;99.10;;;;;;5028692;28;20546;-63
2023/03/12 01:32:19;;;;;;;4.55;1.52;;;2.30;99.00;;;;;;5024110;28;20021;-64
2023/03/12 01:34:45;;;;;;;3.83;1.13;;;2.30;99.00;;;;;;5028388;28;20112;-63
2023/03/12 01:37:10;;;;;;;3.83;1.25;;;2.30;99.10;;;;;;5030328;28;20465;-63
2023/03/12 01:39:36;;;;;;;2.70;1.02;;;2.30;99.40;;;;;;5023511;28;20028;-63
2023/03/12 01:42:03;;;;;;;1.63;1.10;;;2.30;99.40;;;;;;5023823;28;20850;-63
2023/03/12 01:44:28;;;;;;;2.45;1.17;;;2.40;99.60;;;;;;5023817;28;20029;-64
2023/03/12 01:46:54;;;;;;;2.85;1.10;;;2.40;99.30;;;;;;5026994;28;20074;-63
2023/03/12 01:49:32;;;;;;;3.08;1.30;;;2.50;99.20;;;;;;5023969;28;20028;-63
2023/03/12 01:52:15;;;;;;;4.88;1.30;;;2.60;99.20;;;;;;5022227;28;20029;-63
2023/03/12 01:54:51;;;;;;;4.10;0.95;;;2.60;99.10;;;;;;5026061;28;20060;-63
2023/03/12 01:57:27;;;;;;;2.83;1.00;;;2.70;99.10;;;;;;5023433;28;20105;-63
2023/03/12 01:59:58;;;;;;;3.92;1.10;;;2.80;99.00;;;;;;5022424;28;20458;-63
2023/03/12 02:02:27;;;;;;;2.38;0.95;;;2.80;98.80;;;;;;5024096;28;20060;-63
2023/03/12 02:05:04;;;;;;;9.32;0.95;;;2.80;98.50;;;;;;5023717;28;20041;-63
2023/03/12 02:07:32;;;;;;;2.90;0.98;;;2.90;98.30;;;;;;5024168;28;20748;-63
2023/03/12 02:09:58;;;;;;;4.07;1.42;;;2.90;98.20;;;;;;5025630;28;20021;-63
2023/03/12 02:12:24;;;;;;;2.42;1.02;;;2.90;97.80;;;;;;5020585;28;20036;-64
2023/03/12 02:14:49;;;;;;;3.33;1.13;;;3.00;97.60;;;;;;5023158;28;20024;-63
2023/03/12 02:17:16;;;;;;;1.67;0.95;;;3.00;97.90;;;;;;5022096;28;20029;-63
2023/03/12 02:19:46;;;;;;;5.97;1.55;;;3.00;97.90;;;;;;5018789;28;20030;-63
2023/03/12 02:22:14;;;;;;;1.38;0.90;;;3.10;98.10;;;;;;5030543;28;20029;-63
2023/03/12 02:24:52;;;;;;;3.35;1.30;;;3.10;98.10;;;;;;5025305;28;20028;-64
2023/03/12 02:27:19;;;;;;;2.10;1.05;;;3.20;97.40;;;;;;5018465;28;20521;-63
2023/03/12 02:29:45;;;;;;;3.50;1.05;;;3.20;97.40;;;;;;5019746;28;20041;-63
2023/03/12 02:32:20;;;;;;;2.90;1.30;;;3.20;97.40;;;;;;5020044;28;20465;-64
2023/03/12 02:34:46;;;;;;;2.58;1.10;;;3.20;97.60;;;;;;5019413;28;20030;-64
2023/03/12 02:37:13;;;;;;;3.33;1.48;;;3.30;97.50;;;;;;5024169;28;20079;-64
2023/03/12 02:39:41;;;;;;;1.80;0.90;;;3.30;97.80;;;;;;5034154;28;20631;-64
2023/03/12 02:42:07;;;;;;;4.07;1.08;;;3.30;97.40;;;;;;5028721;28;20029;-63
2023/03/12 02:44:35;;;;;;;1.63;0.70;;;3.30;97.60;;;;;;5022509;28;20528;-64
2023/03/12 02:47:01;;;;;;;3.70;0.90;;;3.30;97.70;;;;;;5029691;28;20119;-64
2023/03/12 02:49:30;;;;;;;2.10;1.13;;;3.30;97.90;;;;;;5026573;28;20040;-63
2023/03/12 02:51:58;;;;;;;2.58;0.85;;;3.30;97.60;;;;;;5025102;28;20511;-64
2023/03/12 02:54:24;;;;;;;1.67;1.08;;;3.30;97.50;;;;;;5027245;28;20817;-64
2023/03/12 02:56:51;;;;;;;3.15;1.00;;;3.40;97.50;;;;;;5024311;28;20129;-64
2023/03/12 02:59:20;;;;;;;2.40;0.90;;;3.40;97.40;;;;;;5023918;28;20029;-63
2023/03/12 03:01:51;;;;;;;1.63;0.93;;;3.40;97.40;;;;;;5024123;28;20029;-63
2023/03/12 03:04:17;;;;;;;2.80;0.85;;;3.40;97.30;;;;;;5027602;28;20033;-63
2023/03/12 03:06:43;;;;;;;1.73;0.98;;;3.40;97.30;;;;;;5023377;28;20111;-62
2023/03/12 03:09:10;;;;;;;2.80;0.98;;;3.40;97.20;;;;;;5031244;28;20079;-64
2023/03/12 03:11:36;;;;;;;1.52;1.00;;;3.30;97.20;;;;;;5027806;28;20049;-64
2023/03/12 03:14:05;;;;;;;2.55;1.00;;;3.30;97.30;;;;;;5030639;28;20064;-63
2023/03/12 03:16:32;;;;;;;2.95;0.82;;;3.30;97.00;;;;;;5025279;28;20037;-64
2023/03/12 03:18:58;;;;;;;1.75;1.08;;;3.30;97.20;;;;;;5025917;28;20028;-63
2023/03/12 03:21:24;;;;;;;3.63;1.20;;;3.30;97.30;;;;;;5031817;28;20029;-63
2023/03/12 03:23:50;;;;;;;2.58;0.98;;;3.30;97.40;;;;;;5022070;28;20036;-64
2023/03/12 03:26:21;;;;;;;6.60;1.13;;;3.30;96.90;;;;;;5034478;28;20078;-63
2023/03/12 03:28:47;;;;;;;2.30;1.00;;;3.30;97.10;;;;;;5038671;28;20132;-63
2023/03/12 03:31:14;;;;;;;4.97;1.50;;;3.30;97.20;;;;;;5035951;28;20032;-63
2023/03/12 03:33:41;;;;;;;1.75;0.82;;;3.40;97.00;;;;;;5033830;28;20029;-63
2023/03/12 03:36:10;;;;;;;2.58;1.23;;;3.30;97.10;;;;;;5023891;28;20572;-63
2023/03/12 03:38:47;;;;;;;8.98;1.30;;;3.30;96.90;;;;;;5026242;28;20032;-63
2023/03/12 03:41:18;;;;;;;4.18;1.23;;;3.30;96.70;;;;;;5022428;28;20082;-63
2023/03/12 03:43:45;;;;;;;2.00;1.42;;;3.20;96.80;;;;;;5023208;28;20033;-63
2023/03/12 03:46:13;;;;;;;5.85;1.67;;;3.20;97.20;;;;;;5020163;28;20025;-63
2023/03/12 03:48:42;;;;;;;1.73;1.00;;;3.20;97.30;;;;;;5021295;28;20806;-64
2023/03/12 03:51:10;;;;;;;1.95;1.10;;;3.20;97.60;;;;;;5022744;28;20029;-64
2023/03/12 03:53:39;;;;;;;2.92;1.42;;;3.10;97.50;;;;;;5023078;28;20038;-63
2023/03/12 03:56:11;;;;;;;4.18;1.27;;;3.00;97.50;;;;;;5028987;28;20024;-63
2023/03/12 03:58:40;;;;;;;6.68;1.38;;;3.00;97.80;;;;;;5024434;28;20033;-63
2023/03/12 04:01:07;;;;;;;2.10;1.45;;;3.00;98.00;;;;;;5021902;28;20025;-63
2023/03/12 04:03:34;;;;;;;4.18;0.95;;;2.90;98.00;;;;;;5019671;28;20033;-63
2023/03/12 04:06:03;;;;;;;2.95;1.23;;;3.00;98.10;;;;;;5028154;28;20029;-63
2023/03/12 04:08:31;;;;;;;2.88;1.30;;;2.90;98.20;;;;;;5025961;28;20039;-63
2023/03/12 04:10:58;;;;;;;3.17;1.27;;;3.00;98.30;;;;;;5026753;28;20536;-63
2023/03/12 04:13:23;;;;;;;1.40;1.10;;;2.90;98.20;;;;;;5022680;28;20076;-63
2023/03/12 04:15:54;;;;;;;1.35;1.08;;;2.90;98.20;;;;;;5026774;28;20145;-64
2023/03/12 04:18:20;;;;;;;2.47;1.48;;;3.00;98.20;;;;;;5028489;28;20137;-63
2023/03/12 04:20:46;;;;;;;2.65;1.08;;;3.00;98.30;;;;;;5031815;28;20388;-63
2023/03/12 04:23:12;;;;;;;3.03;1.10;;;2.90;98.40;;;;;;5030754;28;20037;-64
2023/03/12 04:25:38;;;;;;;2.85;1.20;;;2.90;98.40;;;;;;5023423;28;20030;-63
2023/03/12 04:28:04;;;;;;;3.33;1.30;;;2.90;98.40;;;;;;5028008;28;20035;-63
2023/03/12 04:30:31;;;;;;;3.17;1.02;;;2.80;98.40;;;;;;5029605;28;20033;-63
2023/03/12 04:32:57;;;;;;;1.35;1.00;;;2.80;98.60;;;;;;5027859;28;20040;-63
2023/03/12 04:35:23;;;;;;;3.13;1.27;;;2.80;98.70;;;;;;5022942;28;20749;-63
2023/03/12 04:37:50;;;;;;;1.48;0.88;;;2.70;98.80;;;;;;5022805;28;20029;-63
2023/03/12 04:40:18;;;;;;;1.90;1.00;;;2.60;98.90;;;;;;5023322;28;20029;-64
2023/03/12 04:42:45;;;;;;;3.13;1.20;;;2.50;99.00;;;;;;5021598;28;20041;-63
2023/03/12 04:45:11;;;;;;;4.18;1.30;;;2.40;99.10;;;;;;5023077;28;20030;-63
2023/03/12 04:47:40;;;;;;;2.38;1.45;;;2.40;99.40;;;;;;5026040;28;20036;-63
2023/03/12 04:50:07;;;;;;;2.13;1.40;;;2.30;99.50;;;;;;5021143;28;20203;-63
2023/03/12 04:52:33;;;;;;;1.45;1.02;;;2.20;99.60;;;;;;5018390;28;20029;-63
2023/03/12 04:55:00;;;;;;;5.22;1.60;;;2.20;99.90;;;;;;5027486;28;20075;-63
2023/03/12 04:57:26;;;;;;;3.17;1.10;;;2.10;99.90;;;;;;5022103;28;20025;-63
2023/03/12 04:59:53;;;;;;;1.73;1.10;;;2.10;99.90;;;;;;5028498;28;20029;-63
2023/03/12 05:02:19;;;;;;;1.98;1.00;;;2.00;99.90;;;;;;5024936;28;20815;-63
2023/03/12 05:04:46;;;;;;;3.80;1.30;;;2.00;99.90;;;;;;5025692;28;20037;-64
2023/03/12 05:07:11;;;;;;;1.83;1.13;;;1.90;99.90;;;;;;5023943;28;20895;-63
2023/03/12 05:09:37;;;;;;;1.27;1.10;;;1.90;99.90;;;;;;5024841;28;20029;-63
2023/03/12 05:12:04;;;;;;;3.60;2.08;;;1.80;99.90;;;;;;5025536;28;20768;-64
2023/03/12 05:14:31;;;;;;;3.35;2.40;;;1.80;99.90;;;;;;5023196;28;20059;-66
2023/03/12 05:16:57;;;;;;;4.70;2.22;;;1.80;99.90;;;;;;5023273;28;20116;-63
2023/03/12 05:19:23;;;;;;;3.50;1.58;;;1.80;99.90;;;;;;5027119;28;20032;-64
2023/03/12 05:21:49;;;;;;;2.42;1.45;;;1.90;99.90;;;;;;5021773;28;20033;-63
2023/03/12 05:24:15;;;;;;;4.18;1.30;;;2.00;99.90;;;;;;5022057;28;20038;-64
2023/03/12 05:26:42;;;;;;;2.15;1.10;;;2.10;99.90;;;;;;5026120;28;20040;-64
2023/03/12 05:29:16;;;;;;;4.10;1.30;;;2.10;99.90;;;;;;5021299;28;20024;-64
2023/03/12 05:31:43;;;;;;;2.33;1.27;;;2.20;99.90;;;;;;5023118;28;20030;-64
2023/03/12 05:34:11;;;;;;;2.88;1.30;;;2.20;99.90;;;;;;5022200;28;20479;-64
2023/03/12 05:36:38;;;;;;;3.75;1.58;;;2.20;99.90;;;;;;5022754;28;20055;-64
2023/03/12 05:39:05;;;;;;;1.80;1.05;;;2.20;99.80;;;;;;5027360;28;20056;-64
2023/03/12 05:41:32;;;;;;;2.65;1.17;;;2.20;99.70;;;;;;5021987;28;20044;-64
2023/03/12 05:44:04;;;;;;;2.72;1.58;;;2.20;99.60;;;;;;5025958;28;20033;-64
2023/03/12 05:46:30;;;;;;;2.45;1.67;;;2.20;99.60;;;;;;5007024;28;20033;-64
2023/03/12 05:48:57;;;;;;;2.42;1.80;;;2.20;99.60;;;;;;5023072;28;20493;-64
2023/03/12 05:51:23;;;;;;;3.20;1.80;;;2.20;99.50;;;;;;5020890;28;20037;-64
2023/03/12 05:53:49;;;;;;;5.25;2.55;;;2.20;99.50;;;;;;5020836;28;20036;-64
2023/03/12 05:56:16;;;;;;;5.75;2.40;;;2.20;99.30;;;;;;5026385;28;20094;-64
2023/03/12 05:58:43;;;;;;;6.18;2.55;;;2.20;99.30;;;;;;5021231;28;20034;-64
2023/03/12 06:01:25;;;;;;;3.88;1.90;;;2.20;99.30;;;;;;5022303;28;20025;-64
2023/03/12 06:03:52;;;;;;;5.85;2.00;;;2.20;99.30;;;;;;5025598;28;20767;-64
2023/03/12 06:06:19;;;;;;;3.38;1.90;;;2.20;99.20;;;;;;5025610;28;20432;-64
2023/03/12 06:08:46;;;;;;;4.88;2.40;;;2.20;99.20;;;;;;5012966;28;20030;-64
2023/03/12 06:11:12;;;;;;;1.65;1.20;;;2.20;99.30;;;;;;5020841;28;20052;-64
2023/03/12 06:13:38;;;;;;;2.67;2.03;;;2.30;99.40;;;;;;5018944;28;20481;-64
2023/03/12 06:16:16;;;;;;;3.58;2.55;;;2.30;99.60;;;;;;5018876;28;20056;-64
2023/03/12 06:18:42;;;;;;;8.05;3.08;;;2.30;99.70;;;;;;5018954;28;20891;-64
2023/03/12 06:21:13;;;;;;;6.47;2.42;;;2.30;99.40;;;;;;5022242;28;20500;-64
2023/03/12 06:23:39;;;;;;;5.43;1.80;;;2.30;98.70;;;;;;5019078;28;20135;-64
2023/03/12 06:26:06;;;;;;;3.13;1.63;;;2.30;98.70;;;;;;5023018;28;20240;-64
2023/03/12 06:28:33;;;;;;;3.03;1.58;;;2.40;98.70;;;;;;5021316;28;20037;-64
2023/03/12 06:30:59;;;;;;;7.20;2.97;;;2.40;98.80;;;;;;5022782;28;20045;-64
2023/03/12 06:33:25;;;;;;;5.78;2.80;;;2.30;98.90;;;;;;5018137;28;20768;-64
2023/03/12 06:35:58;;;;;;;6.13;2.88;;;2.40;98.40;;;;;;5023115;28;20044;-64
2023/03/12 06:38:25;;;;;;;9.43;3.70;;;2.40;98.20;;;;;;5015924;28;20100;-64
2023/03/12 06:41:15;;;;;;;6.75;2.58;;;2.40;98.20;;;;;;5019565;28;20033;-65
2023/03/12 06:43:42;;;;;;;1.58;1.40;;;2.40;98.40;;;;;;5026474;28;20041;-64
2023/03/12 06:46:12;;;;;;;6.13;2.22;;;2.40;98.30;;;;;;5027271;28;20067;-64
2023/03/12 06:48:40;;;;;;;3.33;1.33;;;2.30;98.30;;;;;;5020232;28;20470;-64
2023/03/12 06:51:10;;;;;;;8.75;1.60;;;2.30;98.10;;;;;;5022913;28;20057;-64
2023/03/12 06:53:36;;;;;;;4.18;2.40;;;2.40;98.00;;;;;;5022237;28;20040;-65
2023/03/12 06:56:03;;;;;;;5.30;1.73;;;2.40;98.00;;;;;;5025580;28;20041;-64
2023/03/12 06:58:29;;;;;;;4.65;1.40;;;2.40;98.20;;;;;;5022210;28;20084;-64
2023/03/12 07:00:55;;;;;;;3.15;1.50;;;2.30;97.80;;;;;;5021688;28;20025;-64
2023/03/12 07:03:21;;;;;;;2.50;1.52;;;2.20;98.40;;;;;;5029127;28;20068;-65
2023/03/12 07:05:48;;;;;;;3.15;1.48;;;2.20;98.70;;;;;;5020727;28;20056;-64
2023/03/12 07:08:15;;;;;;;2.92;1.42;;;2.20;98.90;;;;;;5024120;28;20393;-65
2023/03/12 07:10:41;;;;;;;5.07;1.77;;;2.30;98.90;;;;;;5024745;28;20771;-65
2023/03/12 07:13:06;;;;;;;3.25;1.70;;;2.30;98.80;;;;;;5022828;28;20083;-64
2023/03/12 07:15:33;;;;;;;5.63;1.95;;;2.40;98.40;;;;;;5024926;28;20052;-64
2023/03/12 07:18:06;;;;;;;6.90;2.53;;;2.40;98.30;;;;;;5021654;28;20743;-64
2023/03/12 07:20:34;;;;;;;4.28;2.70;;;2.50;98.40;;;;;;5018667;28;20037;-65
2023/03/12 07:23:00;;;;;;;6.90;2.33;;;2.60;98.40;;;;;;5018147;28;20548;-65
2023/03/12 07:25:26;;;;;;;5.82;1.88;;;2.60;98.30;;;;;;5025449;28;20052;-65
2023/03/12 07:27:52;;;;;;;4.40;2.25;;;2.60;97.80;;;;;;5025135;28;20041;-64
2023/03/12 07:30:17;;;;;;;4.25;2.33;;;2.60;98.40;;;;;;5027781;28;20026;-64
2023/03/12 07:32:43;;;;;;;6.93;2.70;;;2.70;98.40;;;;;;5027355;28;20072;-64
2023/03/12 07:35:09;;;;;;;6.47;2.83;;;3.00;98.40;;;;;;5030581;28;20040;-64
2023/03/12 07:37:35;;;;;;;3.55;1.88;;;3.40;97.00;;;;;;5024987;28;20469;-64
2023/03/12 07:40:01;;;;;;;4.35;2.00;;;3.60;96.10;;;;;;5028863;28;20029;-64
2023/03/12 07:42:27;;;;;;;5.65;2.20;;;3.80;95.50;;;;;;5023140;28;20543;-64
2023/03/12 07:44:55;;;;;;;4.43;1.50;;;4.00;94.70;;;;;;5027022;28;20021;-64
2023/03/12 07:47:21;;;;;;;3.47;1.80;;;4.10;94.10;;;;;;5038548;28;20040;-64
2023/03/12 07:49:47;;;;;;;7.93;1.98;;;4.30;93.80;;;;;;5021928;28;20087;-64
2023/03/12 07:52:12;;;;;;;2.20;1.70;;;4.60;93.30;;;;;;5020597;28;20611;-64
2023/03/12 07:54:38;;;;;;;7.35;2.90;;;5.10;92.30;;;;;;5026590;28;20051;-64
2023/03/12 07:57:05;;;;;;;6.35;2.22;;;5.90;90.30;;;;;;5022110;28;20803;-64
2023/03/12 07:59:31;;;;;;;4.90;2.30;;;6.50;85.30;;;;;;5024556;28;20037;-61
2023/03/12 08:01:56;;;;;;;4.05;2.30;;;7.00;83.20;;;;;;5023954;28;20703;-64
2023/03/12 08:04:22;;;;;;;3.50;1.40;;;7.30;79.20;;;;;;5023700;28;20048;-64
2023/03/12 08:06:48;;;;;;;7.07;2.08;;;7.20;78.30;;;;;;5026143;28;20040;-65
2023/03/12 08:09:14;;;;;;;5.65;1.90;;;7.10;78.70;;;;;;5026447;28;20037;-64
2023/03/12 08:11:39;;;;;;;4.85;1.90;;;7.20;80.90;;;;;;5028750;28;20045;-64
2023/03/12 08:14:05;;;;;;;3.38;1.23;;;7.60;81.90;;;;;;5022348;28;20037;-64
2023/03/12 08:16:31;;;;;;;5.95;1.50;;;7.80;74.70;;;;;;5025212;28;20053;-64
2023/03/12 08:18:57;;;;;;;3.97;2.05;;;7.70;76.40;;;;;;5026800;28;20116;-64
2023/03/12 08:21:23;;;;;;;4.05;1.35;;;7.80;75.10;;;;;;5031237;28;20032;-64
2023/03/12 08:23:49;;;;;;;2.83;1.38;;;7.90;74.70;;;;;;5022876;28;21066;-65
2023/03/12 08:26:14;;;;;;;3.55;1.55;;;7.80;75.00;;;;;;5030943;28;20448;-65
2023/03/12 08:28:40;;;;;;;4.32;1.73;;;7.70;73.90;;;;;;5027987;28;20406;-65
2023/03/12 08:31:08;;;;;;;3.03;1.60;;;7.50;75.80;;;;;;5025737;28;20486;-65
2023/03/12 08:33:34;;;;;;;7.07;1.73;;;7.40;75.90;;;;;;5024120;28;20072;-64
2023/03/12 08:36:00;;;;;;;5.90;1.70;;;7.30;77.40;;;;;;5023034;28;20044;-65
2023/03/12 08:38:27;;;;;;;4.13;1.40;;;7.30;77.50;;;;;;5022594;28;20041;-65
2023/03/12 08:40:57;;;;;;;2.78;1.38;;;7.50;75.40;;;;;;5027263;28;20126;-64
2023/03/12 08:43:24;;;;;;;3.60;1.77;;;7.40;76.00;;;;;;5024616;28;20808;-65
2023/03/12 08:46:00;;;;;;;5.80;1.90;;;7.30;76.70;;;;;;5031011;28;20036;-64
2023/03/12 08:48:27;;;;;;;3.88;1.88;;;7.30;76.90;;;;;;5027243;28;20064;-64
2023/03/12 08:50:58;;;;;;;5.72;1.92;;;7.50;76.20;;;;;;5024917;28;20029;-64
2023/03/12 08:53:25;;;;;;;5.78;2.28;;;7.60;75.80;;;;;;5025875;28;20937;-64
2023/03/12 08:55:53;;;;;;;4.72;1.95;;;7.90;76.00;;;;;;5031915;28;20034;-64
2023/03/12 08:58:19;;;;;;;3.92;2.03;;;8.10;73.80;;;;;;5028341;28;20116;-64
2023/03/12 09:00:45;;;;;;;2.90;1.48;;;8.10;74.10;;;;;;5021310;28;20039;-60
2023/03/12 09:03:13;;;;;;;15.80;8.63;;;8.00;76.10;;;;;;5022438;28;20734;-64
2023/03/12 09:05:40;;;;;;;6.50;2.30;;;7.90;76.30;;;;;;5023185;28;20136;-63
2023/03/12 09:08:07;;;;;;;10.95;8.07;;;8.10;74.20;;;;;;5025078;28;20086;-65
2023/03/12 09:10:33;;;;;;;5.93;2.85;;;8.50;74.30;;;;;;5024708;28;20052;-63
2023/03/12 09:13:00;;;;;;;5.15;1.40;;;8.80;71.00;;;;;;5026332;28;20028;-63
2023/03/12 09:15:26;;;;;;;3.88;2.10;;;9.30;69.50;;;;;;5019249;28;20444;-62
2023/03/12 09:17:54;;;;;;;4.78;1.90;;;9.70;68.70;;;;;;5019975;28;20098;-61
2023/03/12 09:20:20;;;;;;;2.20;1.20;;;10.10;67.80;;;;;;5023503;28;20280;-62
2023/03/12 09:22:47;;;;;;;2.58;1.10;;;10.50;66.80;;;;;;5021576;28;20587;-63
2023/03/12 09:25:13;;;;;;;2.60;1.33;;;10.80;63.40;;;;;;5020019;28;20020;-63
2023/03/12 09:27:42;;;;;;;4.20;1.58;;;11.00;61.50;;;;;;5022000;28;20029;-63
2023/03/12 09:30:11;;;;;;;2.53;1.45;;;11.30;62.80;;;;;;5025565;28;20029;-64
2023/03/12 09:32:37;;;;;;;8.25;1.60;;;11.80;60.50;;;;;;5021337;28;20037;-62
2023/03/12 09:35:04;;;;;;;11.73;1.73;;;11.80;60.00;;;;;;5021206;28;20038;-62
2023/03/12 09:37:31;;;;;;;3.50;1.40;;;11.30;59.70;;;;;;5018433;28;20144;-62
2023/03/12 09:39:57;;;;;;;4.35;1.52;;;10.90;61.30;;;;;;5024699;28;20032;-61
2023/03/12 09:42:54;;;;;;;5.05;1.35;;;10.70;64.30;;;;;;5024455;28;20029;-62
2023/03/12 09:45:26;;;;;;;6.15;1.73;;;10.40;64.00;;;;;;5020771;28;20064;-62
2023/03/12 09:47:59;;;;;;;6.30;1.45;;;10.30;65.50;;;;;;5022976;28;20037;-62
2023/03/12 09:50:30;;;;;;;2.97;1.50;;;10.40;65.30;;;;;;5026473;28;20176;-62
2023/03/12 09:53:03;;;;;;;4.45;1.20;;;10.40;64.40;;;;;;5017749;28;20481;-62
2023/03/12 09:55:37;;;;;;;3.50;1.40;;;10.60;63.30;;;;;;5025760;28;20034;-62
2023/03/12 09:58:03;;;;;;;4.18;1.40;;;10.80;63.10;;;;;;5020249;28;20663;-62
2023/03/12 10:00:33;;;;;;;4.88;1.45;;;10.80;64.10;;;;;;5022706;28;20551;-62
2023/03/12 10:03:26;;;;;;;4.93;1.10;;;10.60;63.20;;;;;;5020487;28;20025;-62
2023/03/12 10:06:02;;;;;;;8.02;1.35;;;10.40;62.50;;;;;;5025318;28;20037;-62
2023/03/12 10:08:55;;;;;;;5.90;1.42;;;10.30;63.90;;;;;;5021009;28;20154;-62
2023/03/12 10:11:33;;;;;;;4.85;1.63;;;10.70;62.80;;;;;;5018430;28;20056;-62
2023/03/12 10:14:09;;;;;;;3.45;1.00;;;10.90;61.10;;;;;;5026539;28;20038;-62
2023/03/12 10:16:51;;;;;;;3.42;1.10;;;10.80;61.40;;;;;;5023695;28;20036;-61
2023/03/12 10:19:29;;;;;;;3.13;1.10;;;11.30;61.00;;;;;;5026978;28;20048;-61
2023/03/12 10:21:54;;;;;;;3.53;1.10;;;11.30;59.90;;;;;;5026130;28;20034;-61
2023/03/12 10:24:42;;;;;;;2.97;0.98;;;11.60;61.60;;;;;;5028643;28;20036;-61
2023/03/12 10:27:13;;;;;;;4.32;1.20;;;12.00;57.80;;;;;;5023764;28;20162;-60
2023/03/12 10:29:42;;;;;;;5.70;1.40;;;12.40;58.00;;;;;;5024935;28;20033;-62
2023/03/12 10:32:18;;;;;;;2.08;1.00;;;12.80;57.20;;;;;;5024904;28;20048;-62
2023/03/12 10:34:56;;;;;;;3.67;1.27;;;12.80;54.20;;;;;;5017952;28;20037;-63
2023/03/12 10:37:39;;;;;;;4.22;1.40;;;12.50;53.90;;;;;;5030227;28;20055;-61
2023/03/12 10:40:05;;;;;;;1.38;1.20;;;11.80;57.00;;;;;;5020733;28;20067;-61
2023/03/12 10:42:32;;;;;;;4.20;1.60;;;11.70;57.80;;;;;;5027634;28;20043;-61
2023/03/12 10:45:33;;;;;;;1.65;1.08;;;12.20;54.80;;;;;;5031566;28;20060;-62
2023/03/12 10:48:08;;;;;;;9.30;1.40;;;12.90;54.10;;;;;;5021816;28;20087;-61
2023/03/12 10:50:36;;;;;;;2.60;1.33;;;13.30;51.60;;;;;;5021745;28;20034;-62
2023/03/12 10:53:22;;;;;;;4.60;2.10;;;14.40;50.70;;;;;;5028262;28;21040;-61
2023/03/12 10:56:02;;;;;;;3.90;1.35;;;14.80;48.00;;;;;;5024509;28;20025;-62
2023/03/12 10:58:39;;;;;;;2.90;1.20;;;14.20;48.40;;;;;;5024027;28;20033;-62
2023/03/12 11:01:20;;;;;;;3.78;1.50;;;13.80;50.10;;;;;;5025191;28;20629;-61
2023/03/12 11:03:46;;;;;;;4.60;1.20;;;13.40;50.70;;;;;;5022747;28;20040;-61
2023/03/12 11:06:29;;;;;;;3.35;1.55;;;12.50;51.00;;;;;;5029850;28;20037;-61
2023/03/12 11:09:16;;;;;;;3.58;1.55;;;11.50;51.20;;;;;;5026256;28;20060;-61
2023/03/12 11:11:44;;;;;;;4.45;1.30;;;10.50;56.60;;;;;;5020368;28;20076;-61
2023/03/12 11:14:11;;;;;;;5.20;1.52;;;10.00;57.40;;;;;;5029557;28;20389;-61
2023/03/12 11:16:37;;;;;;;7.25;4.07;;;9.90;60.90;;;;;;5029761;28;20047;-61
2023/03/12 11:19:05;;;;;;;7.78;2.08;;;9.90;57.40;;;;;;5026488;28;20750;-60
2023/03/12 11:21:37;;;;;;;2.15;1.42;;;10.10;56.30;;;;;;5027701;28;20030;-61
2023/03/12 11:24:12;;;;;;;3.22;1.60;;;10.10;55.80;;;;;;5027754;28;20037;-61
2023/03/12 11:26:52;;;;;;;4.38;1.70;;;9.80;56.20;;;;;;5026262;28;20302;-61
2023/03/12 11:29:32;;;;;;;3.63;1.52;;;9.70;57.30;;;;;;5025847;28;20175;-60
2023/03/12 11:32:15;;;;;;;3.42;1.60;;;9.50;56.00;;;;;;5027585;28;20047;-60
2023/03/12 11:34:46;;;;;;;3.15;1.55;;;9.30;56.90;;;;;;5027906;28;20037;-62
2023/03/12 11:37:29;;;;;;;5.65;2.00;;;8.80;55.10;;;;;;5025084;28;20198;-62
2023/03/12 11:39:55;;;;;;;19.20;7.32;;;8.60;57.40;;;;;;5023065;28;20021;-61
2023/03/12 11:42:26;;;;;;;2.67;1.65;;;8.60;57.90;;;;;;5030585;28;20478;-61
2023/03/12 11:45:02;;;;;;;2.78;1.27;;;8.20;56.90;;;;;;5030758;28;20029;-61
2023/03/12 11:47:54;;;;;;;3.03;1.40;;;8.00;57.20;;;;;;5028666;28;20989;-62
2023/03/12 11:50:41;;;;;;;2.72;1.48;;;8.10;56.80;;;;;;5032686;28;20731;-61
2023/03/12 11:53:10;;;;;;;6.28;1.85;;;8.20;58.60;;;;;;5031348;28;20690;-61
2023/03/12 11:55:42;;;;;;;4.05;1.80;;;8.00;57.40;;;;;;5028577;28;20565;-61
2023/03/12 11:58:33;;;;;;;3.08;1.60;;;8.10;57.60;;;;;;5027628;28;20022;-61
2023/03/12 12:01:09;;;;;;;5.43;1.60;;;8.30;54.10;;;;;;5028859;28;20029;-62
2023/03/12 12:03:41;;;;;;;4.25;1.40;;;8.20;52.20;;;;;;5027749;28;20144;-62
2023/03/12 12:06:31;;;;;;;2.53;1.40;;;8.30;54.00;;;;;;5029398;28;20029;-62
2023/03/12 12:09:24;;;;;;;2.13;1.35;;;8.50;54.10;;;;;;5033255;28;20746;-62
2023/03/12 12:11:56;;;;;;;3.70;1.75;;;8.60;54.10;;;;;;5028032;28;20044;-61
2023/03/12 12:14:44;;;;;;;2.17;1.40;;;8.30;54.30;;;;;;5027517;28;20025;-61
2023/03/12 12:17:16;;;;;;;3.17;1.23;;;8.10;56.80;;;;;;5027258;28;20869;-62
2023/03/12 12:19:48;;;;;;;3.28;1.60;;;8.00;56.20;;;;;;5024573;28;20107;-62
2023/03/12 12:22:44;;;;;;;2.25;1.30;;;8.20;54.40;;;;;;5029258;28;20036;-62
2023/03/12 12:25:29;;;;;;;3.58;1.60;;;8.20;56.20;;;;;;5027330;28;20036;-62
2023/03/12 12:28:14;;;;;;;2.55;1.77;;;8.30;55.40;;;;;;5025435;28;20488;-62
2023/03/12 12:30:53;;;;;;;4.70;1.90;;;8.30;54.70;;;;;;5029610;28;20069;-62
2023/03/12 12:33:21;;;;;;;3.40;1.52;;;8.10;54.30;;;;;;5025922;28;20037;-62
2023/03/12 12:35:47;;;;;;;4.20;1.80;;;8.20;54.60;;;;;;5028106;28;20221;-62
2023/03/12 12:38:34;;;;;;;3.70;1.58;;;8.20;54.00;;;;;;5021898;28;20025;-62
2023/03/12 12:41:24;;;;;;;7.15;2.08;;;8.10;53.20;;;;;;5022784;28;20025;-62
2023/03/12 12:43:57;;;;;;;2.70;1.80;;;8.20;53.90;;;;;;5021001;28;20404;-62
2023/03/12 12:46:31;;;;;;;2.22;2.03;;;8.10;56.10;;;;;;5020458;28;20037;-62
2023/03/12 12:49:12;;;;;;;3.03;1.77;;;8.10;55.80;;;;;;5021850;28;20029;-62
2023/03/12 12:51:47;;;;;;;4.38;1.70;;;8.00;55.00;;;;;;5025342;28;20037;-62
2023/03/12 12:54:45;;;;;;;4.57;1.70;;;7.90;55.70;;;;;;5026693;28;20033;-62
2023/03/12 12:57:22;;;;;;;2.78;1.55;;;7.80;56.30;;;;;;4992346;28;20164;-62
2023/03/12 13:00:05;;;;;;;2.47;1.60;;;7.60;57.20;;;;;;5022586;28;20033;-62
2023/03/12 13:02:36;;;;;;;3.13;1.55;;;7.50;58.10;;;;;;5028443;28;20436;-62
2023/03/12 13:05:02;;;;;;;4.20;1.58;;;7.40;58.30;;;;;;5021511;28;20041;-62
2023/03/12 13:07:30;;;;;;;2.13;1.30;;;7.40;56.50;;;;;;5021295;28;20033;-62
2023/03/12 13:09:57;;;;;;;3.67;1.40;;;7.40;58.50;;;;;;5028686;28;20138;-62